createdAt,value
2019-05-26T00:02:57.966Z,4.96
2019-05-26T00:13:04.660Z,5.01
2019-05-26T00:18:03.456Z,4.38
2019-05-26T00:23:04.618Z,4.38
2019-05-26T00:28:05.243Z,4.46
2019-05-26T00:43:10.427Z,3.82
2019-05-26T00:47:58.800Z,3.43
2019-05-26T00:53:18.913Z,3.08
2019-05-26T01:03:24.136Z,3.25
2019-05-26T01:08:12.721Z,3.31
2019-05-26T01:13:32.966Z,3.48
2019-05-26T01:23:24.440Z,3.22
2019-05-26T01:28:32.856Z,2.95
2019-05-26T01:33:40.275Z,3.30
2019-05-26T01:38:47.775Z,3.59
2019-05-26T01:43:55.495Z,3.18
2019-05-26T01:49:15.813Z,4.17
2019-05-26T01:59:24.641Z,7.37
2019-05-26T02:04:24.884Z,6.87
2019-05-26T02:09:25.143Z,5.14
2019-05-26T02:14:25.353Z,4.91
2019-05-26T02:15:45.859Z,5.66
2019-05-26T02:20:46.071Z,5.39
2019-05-26T02:25:33.391Z,5.86
2019-05-26T02:30:56.616Z,5.98
2019-05-26T02:35:44.948Z,5.67
2019-05-26T02:40:52.303Z,5.62
2019-05-26T02:51:16.271Z,5.46
2019-05-26T02:56:16.433Z,5.32
2019-05-26T03:06:08.835Z,5.64
2019-05-26T03:16:32.791Z,7.73
2019-05-26T03:21:33.953Z,8.72
2019-05-26T03:26:22.440Z,9.68
2019-05-26T03:31:42.709Z,9.95
2019-05-26T03:36:44.041Z,10.42
2019-05-26T03:41:31.441Z,11.17
2019-05-26T03:46:51.565Z,10.80
2019-05-26T03:51:53.573Z,10.73
2019-05-26T03:56:40.733Z,10.43
2019-05-26T04:07:05.743Z,10.14
2019-05-26T04:11:53.157Z,9.25
2019-05-26T04:17:02.491Z,9.20
2019-05-26T04:22:23.809Z,8.64
2019-05-26T04:27:24.062Z,8.09
2019-05-26T04:32:11.370Z,8.26
2019-05-26T04:37:18.804Z,8.43
2019-05-26T04:42:39.110Z,7.62
2019-05-26T04:53:02.063Z,7.38
2019-05-26T04:57:47.029Z,6.27
2019-05-26T05:02:36.319Z,6.45
2019-05-26T05:17:51.685Z,7.62
2019-05-26T05:22:59.098Z,8.48
2019-05-26T05:28:19.325Z,8.80
2019-05-26T05:33:06.553Z,8.48
2019-05-26T05:38:27.567Z,7.48
2019-05-26T05:43:29.781Z,8.01
2019-05-26T05:48:29.895Z,8.26
2019-05-26T05:53:18.467Z,8.05
2019-05-26T05:58:38.698Z,8.97
2019-05-26T06:03:26.027Z,9.47
2019-05-26T06:18:42.272Z,9.67
2019-05-26T06:28:56.319Z,9.86
2019-05-26T06:33:53.903Z,10.52
2019-05-26T06:39:13.981Z,11.11
2019-05-26T06:44:02.495Z,10.66
2019-05-26T06:49:22.654Z,9.66
2019-05-26T06:54:23.958Z,7.77
2019-05-26T07:04:32.147Z,4.91
2019-05-26T07:09:33.152Z,4.58
2019-05-26T07:19:26.304Z,5.11
2019-05-26T07:24:46.627Z,4.36
2019-05-26T07:29:48.729Z,4.82
2019-05-26T07:34:37.163Z,3.32
2019-05-26T07:39:44.498Z,3.04
2019-05-26T07:44:51.826Z,3.47
2019-05-26T07:50:13.959Z,3.20
2019-05-26T07:55:15.136Z,3.00
2019-05-26T08:00:15.485Z,3.18
2019-05-26T08:05:15.777Z,3.21
2019-05-26T08:10:03.135Z,2.41
2019-05-26T08:15:10.588Z,1.05
2019-05-26T08:20:32.033Z,0.81
2019-05-26T08:25:31.628Z,0.64
2019-05-26T08:30:31.945Z,0.96
2019-05-26T08:35:19.619Z,0.85
2019-05-26T08:45:30.917Z,1.20
2019-05-26T08:50:51.292Z,0.98
2019-05-26T08:55:40.870Z,0.59
2019-05-26T09:01:00.893Z,1.07
2019-05-26T09:06:02.103Z,1.03
2019-05-26T09:10:50.371Z,1.00
2019-05-26T09:15:57.724Z,1.04
2019-05-26T09:21:19.942Z,1.69
2019-05-26T09:26:20.063Z,1.94
2019-05-26T09:36:13.277Z,2.11
2019-05-26T09:46:21.683Z,2.13
2019-05-26T09:51:41.752Z,2.22
2019-05-26T09:56:43.115Z,2.41
2019-05-26T10:01:30.382Z,2.68
2019-05-26T10:06:38.028Z,3.56
2019-05-26T10:11:50.914Z,4.16
2019-05-26T10:16:39.311Z,5.08
2019-05-26T10:27:00.675Z,5.06
2019-05-26T10:32:01.873Z,4.11
2019-05-26T10:36:50.175Z,4.46
2019-05-26T10:46:59.355Z,3.59
2019-05-26T10:52:20.730Z,3.37
2019-05-26T10:57:08.227Z,3.97
2019-05-26T11:02:16.459Z,3.48
2019-05-26T11:12:28.711Z,3.44
2019-05-26T11:17:49.052Z,3.18
2019-05-26T11:22:37.608Z,2.48
2019-05-26T11:32:59.679Z,2.85
2019-05-26T11:37:59.262Z,2.78
2019-05-26T11:53:07.161Z,2.98
2019-05-26T11:58:08.326Z,4.16
2019-05-26T12:03:09.674Z,3.49
2019-05-26T12:07:57.592Z,2.98
2019-05-26T12:18:07.065Z,1.14
2019-05-26T12:23:14.528Z,0.81
2019-05-26T12:28:22.117Z,1.24
2019-05-26T12:33:42.333Z,1.12
2019-05-26T12:38:44.610Z,1.23
2019-05-26T12:48:48.593Z,1.14
2019-05-26T12:53:48.959Z,1.16
2019-05-26T12:58:36.901Z,1.38
2019-05-26T13:03:57.168Z,1.31
2019-05-26T13:08:57.478Z,1.91
2019-05-26T13:24:02.834Z,1.70
2019-05-26T13:34:05.306Z,1.67
2019-05-26T13:43:54.590Z,1.50
2019-05-26T13:49:04.426Z,1.58
2019-05-26T13:54:16.015Z,1.57
2019-05-26T14:09:21.388Z,1.34
2019-05-26T14:14:22.624Z,1.41
2019-05-26T14:19:11.135Z,1.39
2019-05-26T14:24:32.474Z,1.48
2019-05-26T14:29:33.629Z,1.36
2019-05-26T14:34:37.873Z,1.39
2019-05-26T14:39:39.108Z,2.24
2019-05-26T14:44:29.734Z,1.28
2019-05-26T14:54:29.338Z,1.82
2019-05-26T14:59:39.096Z,1.59
2019-05-26T15:04:46.498Z,1.23
2019-05-26T15:09:56.191Z,1.33
2019-05-26T15:15:03.585Z,1.91
2019-05-26T15:20:23.758Z,1.25
2019-05-26T15:35:32.055Z,1.56
2019-05-26T15:40:20.888Z,1.46
2019-05-26T15:45:40.446Z,2.10
2019-05-26T15:50:40.880Z,1.74
2019-05-26T15:55:41.093Z,2.03
2019-05-26T16:00:41.408Z,1.68
2019-05-26T16:05:41.700Z,2.02
2019-05-26T16:10:29.234Z,1.63
2019-05-26T16:15:49.507Z,1.99
2019-05-26T16:21:02.399Z,2.29
2019-05-26T16:25:38.424Z,1.94
2019-05-26T16:30:59.813Z,1.84
2019-05-26T16:36:00.100Z,1.76
2019-05-26T16:40:47.475Z,1.81
2019-05-26T16:50:59.920Z,1.87
2019-05-26T16:56:21.026Z,1.61
2019-05-26T17:01:22.499Z,1.68
2019-05-26T17:06:09.798Z,1.86
2019-05-26T17:11:18.386Z,2.12
2019-05-26T17:16:25.831Z,1.54
2019-05-26T17:21:46.296Z,1.64
2019-05-26T17:26:34.749Z,1.68
2019-05-26T17:31:56.261Z,1.82
2019-05-26T17:36:56.430Z,1.70
2019-05-26T17:41:43.938Z,1.80
2019-05-26T17:47:04.107Z,1.72
2019-05-26T17:51:52.583Z,1.58
2019-05-26T18:07:25.242Z,1.67
2019-05-26T18:17:45.861Z,1.70
2019-05-26T18:22:30.844Z,1.63
2019-05-26T18:27:32.657Z,1.35
2019-05-26T18:32:33.205Z,1.54
2019-05-26T18:37:33.551Z,1.89
2019-05-26T18:42:21.287Z,1.62
2019-05-26T18:52:46.309Z,1.35
2019-05-26T18:57:46.665Z,1.77
2019-05-26T19:02:34.111Z,1.25
2019-05-26T19:07:41.512Z,1.99
2019-05-26T19:18:18.759Z,1.79
2019-05-26T19:22:57.335Z,1.62
2019-05-26T19:28:07.775Z,2.20
2019-05-26T19:32:59.111Z,1.69
2019-05-26T19:48:14.225Z,2.07
2019-05-26T19:53:22.068Z,1.61
2019-05-26T20:03:49.608Z,2.05
2019-05-26T20:13:41.186Z,1.94
2019-05-26T20:18:48.668Z,1.96
2019-05-26T20:24:09.059Z,2.13
2019-05-26T20:29:09.224Z,1.91
2019-05-26T20:44:02.622Z,2.38
2019-05-26T20:49:23.098Z,2.09
2019-05-26T20:54:10.720Z,1.53
2019-05-26T20:59:35.119Z,1.90
2019-05-26T21:04:35.679Z,2.28
2019-05-26T21:19:27.928Z,1.99
2019-05-26T21:24:48.167Z,2.12
2019-05-26T21:29:49.438Z,2.03
2019-05-26T21:34:50.917Z,1.93
2019-05-26T22:09:59.518Z,2.26
2019-05-26T22:15:08.078Z,2.22
2019-05-26T22:25:19.709Z,1.91
2019-05-26T22:30:39.976Z,1.79
2019-05-26T22:35:40.197Z,1.45
2019-05-26T22:40:30.976Z,1.66
2019-05-26T22:45:38.433Z,1.45
2019-05-26T22:50:45.897Z,1.74
2019-05-26T22:55:53.586Z,1.91
2019-05-26T23:06:18.719Z,1.77
2019-05-26T23:11:06.112Z,1.82
2019-05-26T23:21:18.461Z,1.70
2019-05-26T23:26:27.078Z,1.87
2019-05-26T23:31:48.273Z,1.96
2019-05-26T23:36:35.737Z,1.49
2019-05-26T23:46:47.415Z,2.18
2019-05-26T23:51:54.721Z,2.23
2019-05-26T23:57:02.087Z,1.54
